Latest Weather Observations for Pirlangimpi

IDD60801

Issued at 7:31 pm CST Wednesday 24 August 2016 (issued every 30 minutes, with the page automatically refreshed every 10 minutes)

About weather observations | Map of weather stations | Latest weather observations for NT | Other Formats
Station Details ID: 014142 Name: PIRLANGIMPI AIRPORT Lat: -11.40 Lon: 130.42 Height: 18.3 m
Data from the previous 72 hours. | See also: Recent months at Pirlangimpi
Date/Time
CST
Temp
°C
App
Temp
°C
Dew
Point
°C
Rel
Hum
%
Delta-T
°C
Wind Press
QNH
hPa
Press
MSL
hPa
Rain since
9am
mm
Dir  Spd
km/h
Gust
km/h
Spd
kts
Gust
kts
24/07:30pm 26.8 29.7 19.9 66 4.5 WSW 4 6 2 3 1009.7 1009.6 0.0
24/07:00pm 27.3 29.7 19.6 62 5.0 WSW 6 11 3 6 1009.2 1009.1 0.0
24/06:30pm 27.9 30.1 19.7 61 5.3 WSW 7 15 4 8 1008.9 1008.8 0.0
24/06:00pm 28.8 31.0 19.7 58 6.0 W 7 15 4 8 1008.6 1008.5 0.0
24/05:30pm 30.4 32.4 19.1 50 7.4 W 7 15 4 8 1008.2 1008.1 0.0
24/05:00pm 31.3 33.2 19.0 48 8.0 SW 7 13 4 7 1007.9 1007.8 0.0
24/04:30pm 31.4 33.4 18.7 46 8.3 WSW 6 13 3 7 1007.6 1007.5 0.0
24/04:00pm 30.5 33.3 20.4 54 6.7 NW 6 19 3 10 1007.7 1007.6 0.0
24/03:30pm 31.2 32.7 20.5 53 7.1 NNW 13 22 7 12 1007.6 1007.5 0.0
24/03:00pm 31.9 33.8 21.4 53 7.1 NNW 13 20 7 11 1007.9 1007.8 0.0
24/02:30pm 31.6 33.4 21.2 54 7.0 NNW 13 20 7 11 1008.2 1008.1 0.0
24/02:00pm 31.8 34.2 21.6 54 6.9 NW 11 19 6 10 1008.5 1008.4 0.0
24/01:30pm 31.4 33.7 22.1 57 6.3 NW 13 22 7 12 1009.0 1008.9 0.0
24/01:00pm 31.0 33.3 22.0 58 6.1 NW 13 24 7 13 1009.5 1009.4 0.0
24/12:30pm 29.9 31.6 21.0 59 5.9 NW 13 20 7 11 1010.1 1010.0 0.0
24/12:00pm 31.4 33.8 19.7 49 7.7 WNW 6 11 3 6 1010.6 1010.5 0.0
24/11:30am 30.3 31.8 18.1 48 7.8 SSW 7 11 4 6 1011.0 1010.9 0.0
24/11:00am 29.9 29.4 14.8 39 9.2 SSW 11 15 6 8 1011.5 1011.4 0.0
24/10:30am 29.5 30.4 18.3 51 7.2 SSW 11 17 6 9 1011.7 1011.6 0.0
24/10:00am 28.5 31.2 20.2 60 5.5 SSW 6 9 3 5 1011.9 1011.8 0.0
24/09:30am 28.2 32.1 21.2 65 4.7 NW 2 4 1 2 1012.0 1011.9 0.0
24/09:00am 26.8 31.5 22.0 75 3.2 CALM 0 2 0 1 1012.1 1012.0 0.0
24/08:30am 25.0 29.2 21.7 82 2.2 NNE 2 4 1 2 1012.0 1011.9 0.0
24/08:00am 23.1 27.5 21.4 90 1.1 CALM 0 0 0 0 1011.8 1011.7 0.0
24/07:30am 21.2 24.9 20.0 93 0.8 CALM 0 4 0 2 1011.6 1011.5 0.0
24/07:00am 20.8 23.9 19.5 92 0.8 NE 2 6 1 3 1011.2 1011.1 0.0
24/06:30am 21.0 24.5 19.5 91 1.0 CALM 0 0 0 0 1010.8 1010.7 0.0
24/06:00am 21.3 24.9 19.8 91 1.0 CALM 0 0 0 0 1010.5 1010.4 0.0
24/05:30am 21.6 25.0 20.1 91 1.0 NE 2 4 1 2 1010.5 1010.4 0.0
24/05:00am 21.3 25.1 20.1 93 0.8 CALM 0 0 0 0 1010.4 1010.3 0.0
24/04:30am 20.7 24.1 19.4 92 0.8 CALM 0 0 0 0 1010.2 1010.1 0.0
24/04:00am 20.8 24.3 19.5 92 0.8 CALM 0 2 0 1 1010.0 1009.9 0.0
24/03:30am 20.9 23.6 19.4 91 1.0 ENE 4 4 2 2 1009.9 1009.8 0.0
24/03:00am 21.0 24.0 19.3 90 1.1 ENE 2 4 1 2 1010.0 1009.9 0.0
24/02:30am 21.2 24.8 19.8 92 0.9 CALM 0 0 0 0 1010.0 1009.9 0.0
24/02:00am 21.3 24.9 19.8 91 1.0 CALM 0 0 0 0 1009.9 1009.8 0.0
24/01:30am 21.5 25.3 20.1 92 0.9 CALM 0 0 0 0 1010.1 1010.0 0.0
24/01:00am 21.6 25.4 20.1 91 1.0 CALM 0 0 0 0 1010.1 1010.0 0.0
24/12:30am 21.8 25.5 19.9 89 1.2 CALM 0 0 0 0 1010.0 1009.9 0.0
24/12:00am 22.0 25.9 20.3 90 1.1 CALM 0 0 0 0 1010.1 1010.0 0.0
 
Date/Time
CST
Temp
°C
App
Temp
°C
Dew
Point
°C
Rel
Hum
%
Delta-T
°C
Wind Press
QNH
hPa
Press
MSL
hPa
Rain since
9am
mm
Dir  Spd
km/h
Gust
km/h
Spd
kts
Gust
kts
23/11:30pm 22.2 26.1 20.3 89 1.2 CALM 0 0 0 0 1010.1 1010.0 0.0
23/11:00pm 22.4 26.2 20.1 87 1.5 CALM 0 0 0 0 1010.1 1010.0 0.0
23/10:30pm 22.6 26.0 20.1 86 1.6 NE 2 2 1 1 1010.0 1009.9 0.0
23/10:00pm 23.1 26.9 20.1 83 1.9 CALM 0 0 0 0 1010.1 1010.0 0.0
23/09:30pm 23.6 27.5 20.3 82 2.1 CALM 0 0 0 0 1010.1 1010.0 0.0
23/09:00pm 24.0 28.0 20.5 81 2.3 CALM 0 2 0 1 1010.0 1009.9 0.0
23/08:30pm 24.5 28.3 20.2 77 2.8 CALM 0 2 0 1 1009.7 1009.6 0.0
23/08:00pm 25.3 28.9 20.5 75 3.1 WNW 2 4 1 2 1009.3 1009.2 0.0
23/07:30pm 25.8 29.3 20.4 72 3.5 W 2 6 1 3 1009.1 1009.0 0.0
23/07:00pm 26.2 29.3 20.3 70 3.9 WNW 4 6 2 3 1008.7 1008.6 0.0
23/06:30pm 26.7 29.1 20.1 67 4.3 WNW 7 11 4 6 1008.3 1008.2 0.0
23/06:00pm 27.8 30.3 19.8 61 5.2 WNW 6 11 3 6 1008.0 1007.9 0.0
23/05:30pm 28.8 31.2 20.8 62 5.3 NW 9 19 5 10 1007.6 1007.5 0.0
23/05:00pm 29.6 31.7 20.2 57 6.2 NW 9 19 5 10 1007.5 1007.4 0.0
23/04:30pm 30.0 31.9 20.5 56 6.3 NW 11 20 6 11 1007.3 1007.2 0.0
23/04:00pm 30.0 31.9 20.5 56 6.3 NW 11 24 6 13 1007.4 1007.3 0.0
23/03:30pm 30.0 31.9 20.5 56 6.3 NW 11 20 6 11 1007.5 1007.4 0.0
23/03:00pm 31.0 32.5 21.2 56 6.6 NW 15 26 8 14 1007.9 1007.8 0.0
23/02:30pm 29.9 30.9 20.2 56 6.4 NW 15 24 8 13 1008.2 1008.1 0.0
23/02:00pm 31.1 32.5 20.4 53 7.1 NNW 13 24 7 13 1008.6 1008.5 0.0
23/01:30pm 29.9 31.1 19.9 55 6.6 NW 13 22 7 12 1009.0 1008.9 0.0
23/01:00pm 30.1 31.4 20.1 55 6.6 NW 13 19 7 10 1009.5 1009.4 0.0
23/12:30pm 29.7 31.5 20.3 57 6.2 NW 11 20 6 11 1009.9 1009.8 0.0
23/12:00pm 30.1 32.4 20.6 56 6.3 WNW 9 17 5 9 1010.5 1010.4 0.0
23/11:30am 29.0 30.8 20.4 59 5.7 NW 11 17 6 9 1010.8 1010.7 0.0
23/11:00am 29.2 31.8 21.2 62 5.3 NW 9 20 5 11 1011.3 1011.2 0.0
23/10:30am 28.5 31.1 20.5 62 5.3 NW 7 15 4 8 1011.5 1011.4 0.0
23/10:00am 27.7 30.3 20.5 65 4.7 WNW 7 15 4 8 1011.5 1011.4 0.0
23/09:30am 28.7 31.7 21.2 64 5.0 NNW 7 13 4 7 1011.2 1011.1 0.0
23/09:00am 27.2 31.0 21.7 72 3.7 N 4 6 2 3 1011.1 1011.0 0.0
23/08:30am 25.1 28.8 21.4 80 2.5 N 4 7 2 4 1010.9 1010.8 0.0
23/08:00am 22.8 26.7 21.1 90 1.1 NE 2 6 1 3 1010.7 1010.6 0.0
23/07:30am 20.6 24.1 19.6 94 0.6 CALM 0 0 0 0 1010.4 1010.3 0.0
23/07:00am 19.8 22.9 18.6 93 0.7 CALM 0 4 0 2 1010.2 1010.1 0.0
23/06:30am 19.9 23.0 18.6 92 0.8 CALM 0 0 0 0 1009.6 1009.5 0.0
23/06:00am 20.2 23.2 18.5 90 1.1 CALM 0 0 0 0 1009.4 1009.3 0.0
23/05:30am 21.1 24.2 19.4 90 1.1 NNE 2 6 1 3 1009.3 1009.2 0.0
23/05:00am 21.3 24.2 19.8 91 1.0 N 4 6 2 3 1009.3 1009.2 0.0
23/04:30am 20.9 23.6 19.4 91 1.0 NNE 4 6 2 3 1009.2 1009.1 0.0
23/04:00am 21.1 24.2 19.6 91 1.0 NNE 2 2 1 1 1009.1 1009.0 0.0
23/03:30am 21.3 24.4 19.6 90 1.1 NE 2 4 1 2 1009.3 1009.2 0.0
23/03:00am 21.5 24.9 19.4 88 1.3 CALM 0 0 0 0 1009.4 1009.3 0.0
23/02:30am 22.2 25.7 19.6 85 1.7 CALM 0 0 0 0 1009.8 1009.7 0.0
23/02:00am 22.8 26.3 20.3 86 1.6 NE 2 4 1 2 1010.0 1009.9 0.0
23/01:30am 22.4 25.4 20.1 87 1.5 NE 4 6 2 3 1010.3 1010.2 0.0
23/01:00am 22.5 25.9 20.2 87 1.5 NE 2 4 1 2 1010.6 1010.5 0.0
23/12:30am 22.9 26.0 20.2 85 1.7 NE 4 6 2 3 1010.8 1010.7 0.0
23/12:00am 23.1 26.9 20.2 84 1.9 CALM 0 0 0 0 1010.9 1010.8 0.0
 
Date/Time
CST
Temp
°C
App
Temp
°C
Dew
Point
°C
Rel
Hum
%
Delta-T
°C
Wind Press
QNH
hPa
Press
MSL
hPa
Rain since
9am
mm
Dir  Spd
km/h
Gust
km/h
Spd
kts
Gust
kts
22/11:30pm 23.6 27.5 20.3 82 2.1 CALM 0 0 0 0 1011.0 1010.9 0.0
22/11:00pm 24.5 28.6 20.8 80 2.4 CALM 0 0 0 0 1010.9 1010.8 0.0
22/10:30pm 24.7 28.9 21.0 80 2.4 CALM 0 0 0 0 1010.9 1010.8 0.0
22/10:00pm 24.4 28.5 20.7 80 2.4 CALM 0 0 0 0 1010.8 1010.7 0.0
22/09:30pm 24.2 28.2 20.5 80 2.4 CALM 0 0 0 0 1010.5 1010.4 0.0
22/09:00pm 24.3 28.3 20.6 80 2.4 CALM 0 2 0 1 1010.2 1010.1 0.0
22/08:30pm 24.5 27.6 20.2 77 2.8 N 4 6 2 3 1009.7 1009.6 0.0
22/08:00pm 25.1 29.0 20.4 75 3.1 CALM 0 4 0 2 1009.3 1009.2 0.0
22/07:30pm 25.6 28.8 20.4 73 3.4 NNW 4 6 2 3 1008.8 1008.7 0.0
22/07:00pm 25.9 29.5 20.5 72 3.5 NNW 2 7 1 4 1008.4 1008.3 0.0
22/06:30pm 26.8 29.6 20.4 68 4.2 NNW 6 13 3 7 1008.1 1008.0 0.0
22/06:00pm 27.5 29.7 20.3 65 4.7 NNW 9 17 5 9 1007.8 1007.7 0.0
22/05:30pm 28.5 30.7 20.5 62 5.3 NW 9 17 5 9 1007.4 1007.3 0.0
22/05:00pm 29.3 31.4 21.0 61 5.5 NW 11 22 6 12 1007.2 1007.1 0.0
22/04:30pm 29.2 30.7 20.6 59 5.7 NW 13 22 7 12 1006.9 1006.8 0.0
22/04:00pm 29.5 31.2 20.9 60 5.7 NW 13 24 7 13 1006.9 1006.8 0.0
22/03:30pm 29.9 31.8 20.5 57 6.2 NW 11 22 6 12 1006.9 1006.8 0.0
22/03:00pm 29.6 31.1 20.5 58 6.0 NW 13 24 7 13 1007.2 1007.1 0.0
22/02:30pm 29.5 30.6 20.4 58 6.0 NW 15 26 8 14 1007.6 1007.5 0.0
22/02:00pm 30.1 32.0 20.6 56 6.3 NW 11 22 6 12 1008.1 1008.0 0.0
22/01:30pm 30.8 32.5 21.0 56 6.6 NW 13 22 7 12 1008.4 1008.3 0.0
22/01:00pm 29.5 30.9 20.4 58 6.0 NW 13 20 7 11 1008.8 1008.7 0.0
22/12:30pm 30.2 32.2 20.7 56 6.3 NW 11 20 6 11 1009.5 1009.4 0.0
22/12:00pm 29.3 31.4 20.2 58 6.0 NW 9 19 5 10 1009.9 1009.8 0.0
22/11:30am 29.4 32.5 21.4 62 5.4 WNW 7 15 4 8 1010.5 1010.4 0.0
22/11:00am 28.2 30.4 19.7 60 5.5 W 7 13 4 7 1011.1 1011.0 0.0
22/10:30am 29.4 32.2 20.5 58 5.9 NNW 6 13 3 7 1011.3 1011.2 0.0
22/10:00am 27.3 29.6 19.4 62 5.1 N 6 11 3 6 1011.6 1011.5 0.0
22/09:30am 28.6 31.7 21.1 64 5.0 NNE 6 11 3 6 1011.5 1011.4 0.0
22/09:00am 27.3 31.1 21.6 71 3.8 NE 4 7 2 4 1011.4 1011.3 0.0
22/08:30am 24.7 28.8 21.6 83 2.1 ENE 2 4 1 2 1011.2 1011.1 0.0
22/08:00am 23.2 27.1 21.1 88 1.4 ENE 2 2 1 1 1011.0 1010.9 0.0
22/07:30am 21.7 25.2 20.3 92 0.9 ENE 2 2 1 1 1010.7 1010.6 0.0
22/07:00am 20.9 23.7 19.6 92 0.8 ENE 4 4 2 2 1010.3 1010.2 0.0
22/06:30am 20.7 23.7 19.2 91 0.9 ENE 2 2 1 1 1009.9 1009.8 0.0
22/06:00am 20.8 23.5 19.5 92 0.8 ENE 4 4 2 2 1009.4 1009.3 0.0
22/05:30am 20.7 23.7 19.2 91 0.9 NE 2 4 1 2 1009.1 1009.0 0.0
22/05:00am 20.8 23.8 19.3 91 0.9 ENE 2 4 1 2 1009.0 1008.9 0.0
22/04:30am 20.9 24.3 19.4 91 1.0 CALM 0 0 0 0 1009.1 1009.0 0.0
22/04:00am 20.8 24.2 19.3 91 0.9 CALM 0 0 0 0 1009.1 1009.0 0.0
22/03:30am 21.0 24.5 19.5 91 1.0 CALM 0 0 0 0 1009.1 1009.0 0.0
22/03:00am 21.1 24.6 19.6 91 1.0 CALM 0 0 0 0 1009.3 1009.2 0.0
22/02:30am 21.4 25.1 19.9 91 1.0 CALM 0 0 0 0 1009.5 1009.4 0.0
22/02:00am 21.5 25.1 19.8 90 1.1 CALM 0 0 0 0 1009.8 1009.7 0.0
22/01:30am 21.7 25.1 19.4 87 1.5 CALM 0 0 0 0 1010.2 1010.1 0.0
22/01:00am 21.9 25.4 19.6 87 1.5 CALM 0 0 0 0 1010.4 1010.3 0.0
22/12:30am 22.2 25.9 19.9 87 1.5 CALM 0 0 0 0 1010.6 1010.5 0.0
22/12:00am 22.6 26.4 20.1 86 1.6 CALM 0 0 0 0 1010.9 1010.8 0.0
 
Date/Time
CST
Temp
°C
App
Temp
°C
Dew
Point
°C
Rel
Hum
%
Delta-T
°C
Wind Press
QNH
hPa
Press
MSL
hPa
Rain since
9am
mm
Dir  Spd
km/h
Gust
km/h
Spd
kts
Gust
kts
21/11:30pm 22.7 26.4 20.0 85 1.7 CALM 0 0 0 0 1011.0 1010.9 0.0
21/11:00pm 22.9 26.6 19.9 83 1.9 CALM 0 0 0 0 1010.9 1010.8 0.0
21/10:30pm 23.2 26.9 20.0 82 2.1 CALM 0 0 0 0 1010.9 1010.8 0.0
21/10:00pm 23.6 27.2 19.7 79 2.5 CALM 0 0 0 0 1010.8 1010.7 0.0
21/09:30pm 24.2 27.9 19.9 77 2.8 CALM 0 0 0 0 1010.7 1010.6 0.0
21/09:00pm 24.9 28.5 19.7 73 3.4 CALM 0 0 0 0 1010.6 1010.5 0.0
21/08:30pm 25.8 29.2 20.1 71 3.7 NNE 2 6 1 3 1010.4 1010.3 0.0
21/08:00pm 26.4 29.1 20.3 69 4.0 ENE 6 9 3 5 1010.0 1009.9 0.0

Other Formats:

Comma delimited format used in spreadsheet applications
http://www.bom.gov.au/fwo/IDD60801/IDD60801.94119.axf

JavaScript Object Notation format (JSON) in row-major order
http://www.bom.gov.au/fwo/IDD60801/IDD60801.94119.json